createdAt,value
2018-08-31T00:10:46.129Z,15.70
2018-08-31T00:13:17.145Z,13.57
2018-08-31T00:15:48.199Z,11.53
2018-08-31T00:18:18.220Z,12.90
2018-08-31T00:20:47.289Z,13.57
2018-08-31T00:23:16.408Z,15.30
2018-08-31T00:28:22.189Z,14.13
2018-08-31T00:36:34.042Z,16.00
2018-08-31T00:41:38.882Z,17.40
2018-08-31T00:44:08.886Z,13.70
2018-08-31T00:46:37.943Z,18.50
2018-08-31T00:49:07.013Z,14.63
2018-08-31T00:51:36.102Z,16.97
2018-08-31T00:54:05.182Z,13.00
2018-08-31T00:56:35.285Z,11.80
2018-08-31T01:01:40.997Z,14.23
2018-08-31T01:04:10.088Z,16.95
2018-08-31T01:06:39.187Z,13.23
2018-08-31T01:09:08.261Z,13.20
2018-08-31T01:16:48.801Z,13.65
2018-08-31T01:21:53.649Z,16.70
2018-08-31T01:24:22.713Z,15.37
2018-08-31T01:26:54.785Z,12.67
2018-08-31T01:29:27.726Z,12.83
2018-08-31T01:31:56.790Z,16.03
2018-08-31T01:34:25.882Z,13.03
2018-08-31T01:36:54.950Z,11.33
2018-08-31T01:39:24.004Z,11.47
2018-08-31T01:44:28.839Z,15.00
2018-08-31T01:46:57.910Z,13.47
2018-08-31T01:52:02.698Z,20.47
2018-08-31T01:57:07.550Z,16.17
2018-08-31T01:59:37.558Z,16.70
2018-08-31T02:02:06.620Z,18.90
2018-08-31T02:04:37.690Z,15.73
2018-08-31T02:07:06.873Z,12.70
2018-08-31T02:09:35.938Z,14.97
2018-08-31T02:14:09.425Z,15.18
2018-08-31T02:19:14.356Z,19.90
2018-08-31T02:21:43.423Z,14.80
2018-08-31T02:24:12.497Z,17.03
2018-08-31T02:26:41.577Z,16.37
2018-08-31T02:29:11.598Z,18.55
2018-08-31T02:31:41.569Z,15.00
2018-08-31T02:34:10.647Z,19.37
2018-08-31T02:39:15.572Z,15.90
2018-08-31T02:44:20.339Z,18.50
2018-08-31T02:49:25.087Z,23.63
2018-08-31T02:51:54.172Z,32.17
2018-08-31T02:54:24.185Z,28.33
2018-08-31T02:56:53.341Z,31.33
2018-08-31T02:59:23.420Z,27.37
2018-08-31T03:01:53.456Z,29.30
2018-08-31T03:04:22.534Z,26.60
2018-08-31T03:06:53.509Z,20.87
2018-08-31T03:09:22.587Z,20.40
2018-08-31T03:11:51.666Z,21.53
2018-08-31T03:16:56.445Z,25.27
2018-08-31T03:19:25.527Z,26.33
2018-08-31T03:21:54.610Z,25.03
2018-08-31T03:24:23.661Z,23.83
2018-08-31T03:26:53.740Z,21.90
2018-08-31T03:29:28.239Z,25.23
2018-08-31T03:31:57.281Z,24.40
2018-08-31T03:34:26.352Z,21.40
2018-08-31T03:44:43.552Z,33.50
2018-08-31T03:47:12.622Z,32.37
2018-08-31T03:52:17.414Z,42.00
2018-08-31T04:02:33.786Z,52.50
2018-08-31T04:05:02.867Z,43.90
2018-08-31T04:07:31.936Z,45.40
2018-08-31T04:10:01.007Z,45.00
2018-08-31T04:12:30.195Z,46.60
2018-08-31T04:14:59.482Z,45.33
2018-08-31T04:17:28.485Z,44.23
2018-08-31T04:19:57.563Z,45.83
2018-08-31T04:22:26.637Z,42.23
2018-08-31T04:27:31.414Z,56.50
2018-08-31T04:32:37.267Z,55.63
2018-08-31T04:35:06.685Z,54.47
2018-08-31T04:37:35.774Z,55.20
2018-08-31T04:40:09.712Z,49.33
2018-08-31T04:45:14.549Z,46.90
2018-08-31T04:47:43.627Z,41.33
2018-08-31T04:50:13.073Z,38.17
2018-08-31T04:52:42.215Z,39.00
2018-08-31T04:55:11.262Z,36.03
2018-08-31T04:57:40.344Z,38.87
2018-08-31T05:00:09.409Z,38.33
2018-08-31T05:02:38.474Z,33.63
2018-08-31T05:07:45.372Z,32.08
2018-08-31T05:10:14.429Z,28.97
2018-08-31T05:12:43.502Z,26.97
2018-08-31T05:15:12.814Z,24.90
2018-08-31T05:17:41.874Z,28.43
2018-08-31T05:20:10.950Z,29.60
2018-08-31T05:22:40.056Z,31.63
2018-08-31T05:27:45.405Z,30.53
2018-08-31T05:30:15.419Z,34.28
2018-08-31T05:32:45.477Z,27.83
2018-08-31T05:37:50.315Z,31.17
2018-08-31T05:40:32.769Z,29.97
2018-08-31T05:43:07.988Z,30.83
2018-08-31T05:45:47.479Z,29.17
2018-08-31T05:48:17.580Z,32.45
2018-08-31T05:50:50.683Z,31.30
2018-08-31T05:53:21.985Z,32.27
2018-08-31T05:55:51.049Z,29.03
2018-08-31T06:00:56.920Z,30.43
2018-08-31T06:03:26.967Z,26.63
2018-08-31T06:08:31.815Z,28.03
2018-08-31T06:11:00.877Z,28.27
2018-08-31T06:13:29.962Z,30.37
2018-08-31T06:16:00.030Z,25.97
2018-08-31T06:21:04.920Z,30.13
2018-08-31T06:23:33.951Z,25.80
2018-08-31T06:26:03.063Z,28.97
2018-08-31T06:28:32.186Z,26.40
2018-08-31T06:31:01.257Z,26.13
2018-08-31T06:33:35.249Z,26.80
2018-08-31T06:36:04.352Z,29.87
2018-08-31T06:38:34.366Z,30.17
2018-08-31T06:43:39.175Z,27.77
2018-08-31T06:46:10.486Z,30.30
2018-08-31T06:48:41.569Z,31.05
2018-08-31T06:51:10.626Z,27.20
2018-08-31T06:53:39.709Z,27.53
2018-08-31T06:56:08.761Z,24.50
2018-08-31T06:58:37.822Z,26.63
2018-08-31T07:01:06.899Z,30.67
2018-08-31T07:03:37.986Z,29.77
2018-08-31T07:06:07.171Z,31.60
2018-08-31T07:08:36.276Z,28.53
2018-08-31T07:11:05.329Z,29.20
2018-08-31T07:13:34.570Z,31.27
2018-08-31T07:16:03.650Z,26.30
2018-08-31T07:18:33.636Z,28.07
2018-08-31T07:21:02.711Z,28.90
2018-08-31T07:26:07.571Z,32.50
2018-08-31T07:28:36.636Z,27.77
2018-08-31T07:33:41.516Z,34.10
2018-08-31T07:38:46.369Z,33.47
2018-08-31T07:41:16.478Z,34.58
2018-08-31T07:43:45.553Z,33.67
2018-08-31T07:46:14.637Z,32.53
2018-08-31T07:48:44.615Z,31.63
2018-08-31T07:56:27.229Z,38.10
2018-08-31T07:58:59.309Z,35.40
2018-08-31T08:01:28.406Z,35.13
2018-08-31T08:06:33.290Z,44.23
2018-08-31T08:09:07.260Z,37.50
2018-08-31T08:11:37.277Z,37.90
2018-08-31T08:14:06.570Z,35.77
2018-08-31T08:16:43.059Z,38.67
2018-08-31T08:19:22.272Z,33.53
2018-08-31T08:22:03.476Z,37.10
2018-08-31T08:24:43.090Z,36.10
2018-08-31T08:27:21.376Z,33.70
2018-08-31T08:30:01.201Z,38.73
2018-08-31T08:35:16.914Z,42.17
2018-08-31T08:40:36.840Z,51.83
2018-08-31T08:43:16.472Z,41.50
2018-08-31T08:45:52.762Z,44.90
2018-08-31T08:48:33.495Z,44.27
2018-08-31T08:51:13.698Z,40.33
2018-08-31T08:53:50.896Z,37.10
2018-08-31T08:59:04.260Z,41.83
2018-08-31T09:01:46.161Z,41.33
2018-08-31T09:04:24.700Z,41.30
2018-08-31T09:09:51.857Z,48.28
2018-08-31T09:15:11.160Z,47.80
2018-08-31T09:17:50.319Z,40.27
2018-08-31T09:20:28.442Z,43.90
2018-08-31T09:23:06.242Z,41.70
2018-08-31T09:25:45.789Z,42.80
2018-08-31T09:28:27.225Z,46.90
2018-08-31T09:31:07.450Z,36.20
2018-08-31T09:36:25.888Z,38.73
2018-08-31T09:41:52.724Z,40.25
2018-08-31T09:44:40.981Z,40.35
2018-08-31T09:47:21.356Z,36.60
2018-08-31T09:49:59.487Z,36.33
2018-08-31T09:52:39.142Z,35.90
2018-08-31T09:55:19.724Z,38.63
2018-08-31T09:57:57.702Z,33.53
2018-08-31T10:03:28.102Z,35.13
2018-08-31T10:06:07.353Z,33.30
2018-08-31T10:14:03.197Z,45.15
2018-08-31T10:16:40.244Z,37.60
2018-08-31T10:19:28.641Z,41.93
2018-08-31T10:22:05.417Z,38.43
2018-08-31T10:27:24.419Z,47.10
2018-08-31T10:30:06.263Z,33.17
2018-08-31T10:35:34.086Z,40.90
2018-08-31T10:38:19.167Z,41.37
2018-08-31T10:41:01.637Z,39.60
2018-08-31T10:43:42.928Z,44.50
2018-08-31T10:46:23.753Z,35.80
2018-08-31T10:49:03.802Z,46.07
2018-08-31T10:54:21.235Z,44.13
2018-08-31T10:56:59.863Z,32.80
2018-08-31T11:02:29.865Z,39.70
2018-08-31T11:05:10.030Z,34.00
2018-08-31T11:07:49.428Z,33.93
2018-08-31T11:10:28.071Z,29.40
2018-08-31T11:13:13.956Z,34.17
2018-08-31T11:15:52.825Z,34.93
2018-08-31T11:24:04.132Z,45.20
2018-08-31T11:26:55.446Z,39.30
2018-08-31T11:29:44.456Z,39.10
2018-08-31T11:32:28.057Z,35.20
2018-08-31T11:35:06.099Z,38.23
2018-08-31T11:37:44.110Z,38.97
2018-08-31T11:45:25.839Z,46.00
2018-08-31T11:50:34.237Z,42.33
2018-08-31T11:53:05.279Z,30.93
2018-08-31T11:55:34.366Z,29.07
2018-08-31T11:58:03.461Z,26.03
2018-08-31T12:00:34.526Z,24.33
2018-08-31T12:03:05.673Z,22.43
2018-08-31T12:08:10.454Z,26.93
2018-08-31T12:10:39.531Z,26.77
2018-08-31T12:13:10.380Z,23.37
2018-08-31T12:18:16.459Z,24.43
2018-08-31T12:23:21.387Z,18.90
2018-08-31T12:25:52.481Z,20.37
2018-08-31T12:28:22.574Z,16.50
2018-08-31T12:33:27.431Z,22.10
2018-08-31T12:38:32.186Z,21.30
2018-08-31T12:41:01.253Z,23.58
2018-08-31T12:46:06.033Z,22.90
2018-08-31T12:48:40.432Z,24.87
2018-08-31T12:51:09.782Z,19.83
2018-08-31T12:53:38.858Z,17.70
2018-08-31T12:56:09.867Z,20.43
2018-08-31T12:58:43.690Z,20.42
2018-08-31T13:01:13.693Z,18.50
2018-08-31T13:03:44.743Z,17.37
2018-08-31T13:06:13.820Z,14.97
2018-08-31T13:08:42.893Z,16.00
2018-08-31T13:11:11.960Z,15.43
2018-08-31T13:13:57.820Z,17.17
2018-08-31T13:24:16.293Z,17.02
2018-08-31T13:26:45.813Z,17.05
2018-08-31T13:29:14.889Z,15.10
2018-08-31T13:31:47.236Z,14.90
2018-08-31T13:34:18.258Z,15.57
2018-08-31T13:36:48.269Z,15.00
2018-08-31T13:39:17.811Z,15.43
2018-08-31T13:41:57.719Z,13.17
2018-08-31T13:47:04.525Z,18.90
2018-08-31T13:49:33.604Z,16.30
2018-08-31T13:52:02.665Z,17.87
2018-08-31T13:54:36.997Z,17.03
2018-08-31T13:57:09.202Z,18.97
2018-08-31T13:59:41.068Z,15.90
2018-08-31T14:02:10.108Z,18.23
2018-08-31T14:04:40.104Z,18.73
2018-08-31T14:07:09.185Z,16.13
2018-08-31T14:09:40.162Z,16.77
2018-08-31T14:12:09.218Z,18.53
2018-08-31T14:14:38.277Z,18.87
2018-08-31T14:17:07.357Z,17.90
2018-08-31T14:22:12.202Z,24.23
2018-08-31T14:27:16.961Z,31.50
2018-08-31T14:29:47.050Z,27.40
2018-08-31T14:32:19.848Z,26.02
2018-08-31T14:34:56.608Z,22.93
2018-08-31T14:37:25.694Z,22.17
2018-08-31T14:39:54.761Z,24.40
2018-08-31T14:42:23.821Z,22.00
2018-08-31T14:44:56.754Z,23.60
2018-08-31T14:47:25.854Z,24.10
2018-08-31T14:49:54.989Z,24.97
2018-08-31T14:52:24.254Z,24.43
2018-08-31T14:54:53.320Z,27.43
2018-08-31T14:57:22.385Z,29.73
2018-08-31T15:02:27.181Z,28.12
2018-08-31T15:04:56.417Z,27.52
2018-08-31T15:07:25.486Z,23.70
2018-08-31T15:09:56.511Z,20.90
2018-08-31T15:12:26.514Z,24.83
2018-08-31T15:14:56.584Z,23.40
2018-08-31T15:17:28.019Z,20.13
2018-08-31T15:20:01.289Z,22.30
2018-08-31T15:22:34.107Z,22.20
2018-08-31T15:25:05.145Z,19.97
2018-08-31T15:27:37.846Z,17.90
2018-08-31T15:30:06.923Z,23.10
2018-08-31T15:32:36.967Z,22.27
2018-08-31T15:35:06.045Z,20.03
2018-08-31T15:45:22.405Z,24.27
2018-08-31T15:50:27.255Z,22.03
2018-08-31T15:55:35.666Z,22.27
2018-08-31T15:58:05.899Z,25.25
2018-08-31T16:00:42.357Z,23.40
2018-08-31T16:03:16.270Z,22.80
2018-08-31T16:05:47.300Z,21.73
2018-08-31T16:08:18.278Z,22.30
2018-08-31T16:10:47.350Z,21.83
2018-08-31T16:13:16.722Z,23.87
2018-08-31T16:15:46.799Z,23.07
2018-08-31T16:20:51.673Z,27.30
2018-08-31T16:23:20.774Z,27.17
2018-08-31T16:25:50.037Z,23.53
2018-08-31T16:36:07.338Z,32.13
2018-08-31T16:38:43.474Z,27.92
2018-08-31T16:41:18.915Z,22.37
2018-08-31T16:43:50.466Z,24.87
2018-08-31T16:46:21.450Z,26.67
2018-08-31T16:48:52.164Z,23.30
2018-08-31T16:51:23.043Z,24.63
2018-08-31T16:53:55.246Z,21.70
2018-08-31T16:59:03.997Z,26.43
2018-08-31T17:01:35.184Z,25.57
2018-08-31T17:04:04.536Z,27.40
2018-08-31T17:06:34.485Z,28.85
2018-08-31T17:11:40.451Z,30.30
2018-08-31T17:16:56.731Z,30.03
2018-08-31T17:22:03.529Z,28.77
2018-08-31T17:29:49.598Z,31.00
2018-08-31T17:37:46.479Z,29.87
2018-08-31T17:40:15.541Z,25.70
2018-08-31T17:42:44.612Z,23.87
2018-08-31T17:45:14.643Z,27.67
2018-08-31T17:47:43.738Z,26.40
2018-08-31T17:50:12.790Z,24.57
2018-08-31T17:52:41.854Z,24.17
2018-08-31T17:55:10.941Z,26.77
2018-08-31T17:57:40.001Z,29.80
2018-08-31T18:00:10.989Z,26.47
2018-08-31T18:02:41.099Z,37.40
2018-08-31T18:05:11.124Z,32.07
2018-08-31T18:10:15.919Z,38.80
2018-08-31T18:12:44.997Z,37.80
2018-08-31T18:15:14.090Z,39.00
2018-08-31T18:17:44.182Z,34.53
2018-08-31T18:20:14.233Z,38.60
2018-08-31T18:22:43.295Z,40.80
2018-08-31T18:25:12.366Z,35.43
2018-08-31T18:27:41.430Z,31.67
2018-08-31T18:30:14.506Z,40.53
2018-08-31T18:32:44.494Z,38.90
2018-08-31T18:37:52.326Z,44.72
2018-08-31T18:40:21.391Z,37.00
2018-08-31T18:42:50.472Z,44.97
2018-08-31T18:45:27.624Z,38.83
2018-08-31T18:47:56.700Z,48.23
2018-08-31T18:50:25.753Z,34.23
2018-08-31T18:55:30.609Z,28.40
2018-08-31T18:58:05.080Z,33.90
2018-08-31T19:00:37.611Z,27.90
2018-08-31T19:05:44.369Z,34.70
2018-08-31T19:08:15.440Z,36.33
2018-08-31T19:10:52.613Z,30.37
2018-08-31T19:13:21.705Z,28.57
2018-08-31T19:15:50.785Z,26.77
2018-08-31T19:18:19.874Z,26.93
2018-08-31T19:20:48.922Z,30.67
2018-08-31T19:23:18.033Z,31.67
2018-08-31T19:25:49.080Z,33.33
2018-08-31T19:30:55.854Z,36.73
2018-08-31T19:33:24.917Z,32.00
2018-08-31T19:35:55.195Z,29.07
2018-08-31T19:38:24.283Z,28.40
2018-08-31T19:40:54.822Z,33.23
2018-08-31T19:43:24.008Z,37.50
2018-08-31T19:45:53.075Z,37.00
2018-08-31T19:48:22.133Z,36.60
2018-08-31T19:50:53.155Z,33.13
2018-08-31T19:53:25.401Z,38.60
2018-08-31T19:58:32.214Z,59.40
2018-08-31T20:01:01.285Z,57.50
2018-08-31T20:03:30.345Z,52.47
2018-08-31T20:06:00.378Z,50.00
2018-08-31T20:08:29.452Z,69.67
2018-08-31T20:16:09.972Z,84.13
2018-08-31T20:21:16.328Z,67.17
2018-08-31T20:23:47.416Z,58.40
2018-08-31T20:26:16.459Z,49.17
2018-08-31T20:34:04.456Z,77.03
2018-08-31T20:39:09.295Z,66.60
2018-08-31T20:41:43.716Z,71.30
2018-08-31T20:44:13.735Z,63.83
2018-08-31T20:46:42.810Z,53.17
2018-08-31T20:54:23.358Z,56.58
2018-08-31T21:02:04.472Z,59.67
2018-08-31T21:09:46.084Z,66.28
2018-08-31T21:12:15.178Z,48.60
2018-08-31T21:14:46.141Z,49.23
2018-08-31T21:17:15.203Z,46.63
2018-08-31T21:19:47.847Z,54.80
2018-08-31T21:22:16.919Z,49.70
2018-08-31T21:27:21.766Z,71.03
2018-08-31T21:35:06.744Z,77.83
2018-08-31T21:37:36.802Z,62.13
2018-08-31T21:40:05.883Z,63.93
2018-08-31T21:42:35.966Z,62.60
2018-08-31T21:45:05.917Z,77.10
2018-08-31T21:47:50.615Z,64.57
2018-08-31T21:50:19.681Z,59.97
2018-08-31T21:52:48.780Z,78.57
2018-08-31T21:55:20.979Z,72.40
2018-08-31T21:57:49.986Z,65.73
2018-08-31T22:00:22.918Z,62.80
2018-08-31T22:03:10.635Z,71.30
2018-08-31T22:08:28.076Z,83.77
2018-08-31T22:11:10.618Z,66.70
2018-08-31T22:13:39.688Z,65.23
2018-08-31T22:16:09.702Z,64.30
2018-08-31T22:18:38.777Z,73.50
2018-08-31T22:21:07.932Z,52.80
2018-08-31T22:31:36.850Z,89.40
2018-08-31T22:34:07.892Z,78.83
2018-08-31T22:37:02.495Z,72.50
2018-08-31T22:39:31.605Z,72.07
2018-08-31T22:42:00.671Z,69.70
2018-08-31T22:44:29.739Z,62.40
2018-08-31T22:47:02.137Z,74.93
2018-08-31T22:49:32.166Z,69.53
2018-08-31T22:52:01.217Z,66.10
2018-08-31T22:54:30.278Z,56.67
2018-08-31T22:59:35.051Z,96.23
2018-08-31T23:04:39.887Z,96.03
2018-08-31T23:07:08.955Z,73.60
2018-08-31T23:09:41.729Z,66.17
2018-08-31T23:14:46.513Z,79.67
2018-08-31T23:17:18.970Z,70.23
2018-08-31T23:19:48.994Z,66.37
2018-08-31T23:22:25.753Z,57.07
2018-08-31T23:24:55.981Z,50.40
2018-08-31T23:30:00.756Z,64.07
2018-08-31T23:32:33.942Z,55.27
2018-08-31T23:35:03.992Z,50.73
2018-08-31T23:37:33.069Z,48.20
2018-08-31T23:40:07.569Z,48.63
2018-08-31T23:45:12.350Z,62.43
2018-08-31T23:50:17.192Z,70.57
2018-08-31T23:52:46.294Z,52.90
2018-08-31T23:55:28.230Z,51.53
2018-08-31T23:57:57.288Z,46.57
